createdAt,value
2019-06-01T00:00:37.885Z,10.30
2019-06-01T00:03:07.397Z,10.10
2019-06-01T00:05:36.550Z,10.57
2019-06-01T00:08:05.898Z,10.73
2019-06-01T00:10:35.255Z,10.87
2019-06-01T00:13:04.347Z,10.00
2019-06-01T00:15:33.467Z,10.00
2019-06-01T00:18:02.602Z,9.93
2019-06-01T00:20:31.695Z,10.57
2019-06-01T00:23:01.042Z,10.10
2019-06-01T00:25:30.516Z,11.20
2019-06-01T00:27:59.595Z,10.10
2019-06-01T00:30:28.995Z,10.83
2019-06-01T00:32:58.415Z,10.70
2019-06-01T00:35:27.480Z,10.50
2019-06-01T00:37:56.676Z,11.47
2019-06-01T00:40:25.755Z,9.63
2019-06-01T00:42:54.843Z,11.00
2019-06-01T00:45:23.936Z,11.57
2019-06-01T00:47:53.083Z,11.37
2019-06-01T00:50:22.192Z,12.53
2019-06-01T00:52:51.434Z,11.67
2019-06-01T00:55:20.543Z,12.30
2019-06-01T00:57:49.828Z,11.93
2019-06-01T01:00:19.344Z,12.60
2019-06-01T01:02:48.674Z,11.90
2019-06-01T01:05:18.504Z,11.83
2019-06-01T01:07:48.801Z,12.43
2019-06-01T01:10:19.062Z,12.17
2019-06-01T01:13:06.190Z,12.97
2019-06-01T01:15:36.345Z,13.17
2019-06-01T01:18:06.640Z,12.90
2019-06-01T01:20:36.457Z,12.97
2019-06-01T01:23:05.902Z,11.57
2019-06-01T01:25:35.006Z,12.53
2019-06-01T01:28:04.184Z,12.03
2019-06-01T01:30:33.281Z,12.53
2019-06-01T01:33:02.939Z,12.73
2019-06-01T01:35:32.114Z,13.00
2019-06-01T01:38:01.459Z,12.57
2019-06-01T01:40:30.654Z,12.97
2019-06-01T01:42:59.756Z,13.83
2019-06-01T01:45:28.866Z,12.37
2019-06-01T01:47:59.134Z,13.43
2019-06-01T01:50:29.204Z,13.57
2019-06-01T01:52:59.000Z,13.87
2019-06-01T01:55:28.208Z,14.17
2019-06-01T01:57:57.623Z,13.17
2019-06-01T02:00:44.654Z,14.40
2019-06-01T02:03:13.764Z,13.63
2019-06-01T02:05:42.919Z,14.17
2019-06-01T02:08:12.351Z,14.00
2019-06-01T02:10:41.447Z,15.33
2019-06-01T02:13:13.833Z,13.67
2019-06-01T02:15:43.728Z,14.53
2019-06-01T02:18:13.073Z,15.63
2019-06-01T02:20:42.142Z,14.43
2019-06-01T02:23:11.204Z,15.27
2019-06-01T02:25:40.583Z,14.83
2019-06-01T02:28:10.371Z,14.70
2019-06-01T02:30:39.703Z,14.47
2019-06-01T02:33:08.783Z,15.10
2019-06-01T02:35:38.142Z,14.97
2019-06-01T02:38:07.216Z,15.43
2019-06-01T02:40:36.873Z,15.20
2019-06-01T02:43:07.026Z,14.87
2019-06-01T02:45:36.257Z,15.20
2019-06-01T02:48:06.781Z,14.70
2019-06-01T02:50:36.151Z,15.23
2019-06-01T02:53:05.809Z,14.43
2019-06-01T02:55:34.979Z,14.90
2019-06-01T02:58:04.427Z,14.73
2019-06-01T03:01:21.467Z,14.67
2019-06-01T03:03:52.294Z,14.80
2019-06-01T03:06:21.709Z,14.17
2019-06-01T03:08:52.459Z,14.80
2019-06-01T03:11:24.810Z,14.33
2019-06-01T03:13:56.241Z,14.10
2019-06-01T03:16:29.171Z,14.10
2019-06-01T03:19:01.862Z,14.47
2019-06-01T03:21:32.674Z,14.13
2019-06-01T03:24:06.187Z,14.53
2019-06-01T03:26:39.995Z,14.33
2019-06-01T03:29:12.681Z,13.90
2019-06-01T03:31:42.184Z,13.97
2019-06-01T03:34:11.623Z,14.07
2019-06-01T03:36:41.684Z,14.33
2019-06-01T03:39:12.877Z,13.83
2019-06-01T03:41:42.386Z,14.93
2019-06-01T03:44:12.957Z,14.53
2019-06-01T03:46:42.523Z,13.77
2019-06-01T03:49:11.958Z,15.33
2019-06-01T03:51:41.188Z,14.07
2019-06-01T03:54:10.359Z,13.93
2019-06-01T03:56:39.714Z,13.43
2019-06-01T03:59:09.344Z,14.00
2019-06-01T04:01:38.600Z,13.57
2019-06-01T04:04:07.676Z,14.30
2019-06-01T04:06:36.782Z,14.07
2019-06-01T04:09:07.853Z,14.13
2019-06-01T04:11:36.979Z,13.23
2019-06-01T04:14:07.726Z,14.10
2019-06-01T04:16:36.945Z,14.57
2019-06-01T04:19:06.228Z,14.40
2019-06-01T04:21:35.372Z,14.90
2019-06-01T04:24:04.436Z,14.37
2019-06-01T04:26:33.531Z,14.37
2019-06-01T04:29:02.617Z,14.30
2019-06-01T04:31:31.985Z,14.73
2019-06-01T04:34:01.153Z,14.57
2019-06-01T04:36:30.253Z,14.90
2019-06-01T04:38:59.695Z,15.27
2019-06-01T04:41:28.791Z,14.97
2019-06-01T04:43:57.995Z,15.13
2019-06-01T04:46:27.671Z,15.00
2019-06-01T04:48:57.092Z,15.80
2019-06-01T04:51:26.163Z,14.20
2019-06-01T04:53:55.522Z,15.57
2019-06-01T04:56:24.618Z,14.57
2019-06-01T04:58:54.247Z,14.83
2019-06-01T05:01:23.984Z,14.83
2019-06-01T05:03:53.065Z,14.97
2019-06-01T05:06:22.123Z,15.80
2019-06-01T05:08:51.507Z,16.30
2019-06-01T05:11:20.845Z,16.03
2019-06-01T05:13:49.931Z,16.40
2019-06-01T05:16:22.384Z,15.83
2019-06-01T05:18:51.563Z,16.00
2019-06-01T05:21:20.909Z,16.07
2019-06-01T05:23:49.989Z,16.80
2019-06-01T05:26:19.622Z,15.27
2019-06-01T05:28:49.003Z,16.70
2019-06-01T05:31:24.295Z,15.30
2019-06-01T05:33:48.927Z,14.67
2019-06-01T05:36:18.431Z,15.70
2019-06-01T05:38:48.075Z,14.83
2019-06-01T05:41:17.212Z,14.53
2019-06-01T05:43:46.300Z,15.23
2019-06-01T05:46:16.097Z,14.10
2019-06-01T05:48:45.276Z,14.90
2019-06-01T05:51:16.813Z,14.83
2019-06-01T05:53:45.452Z,14.53
2019-06-01T05:56:14.828Z,16.00
2019-06-01T05:58:43.916Z,15.33
2019-06-01T06:01:14.546Z,15.50
2019-06-01T06:03:43.847Z,15.03
2019-06-01T06:06:13.736Z,15.60
2019-06-01T06:08:42.916Z,14.93
2019-06-01T06:11:12.898Z,15.60
2019-06-01T06:13:42.328Z,14.83
2019-06-01T06:16:11.680Z,15.43
2019-06-01T06:18:40.869Z,15.17
2019-06-01T06:21:10.230Z,14.03
2019-06-01T06:23:39.319Z,14.90
2019-06-01T06:26:08.403Z,13.83
2019-06-01T06:28:37.474Z,14.07
2019-06-01T06:31:06.588Z,14.47
2019-06-01T06:33:36.936Z,13.90
2019-06-01T06:36:06.221Z,14.10
2019-06-01T06:38:35.606Z,13.20
2019-06-01T06:41:04.789Z,13.03
2019-06-01T06:43:34.992Z,12.90
2019-06-01T06:46:04.072Z,13.53
2019-06-01T06:48:33.162Z,13.30
2019-06-01T06:51:02.256Z,12.87
2019-06-01T06:53:35.132Z,13.97
2019-06-01T06:56:02.722Z,12.37
2019-06-01T06:58:31.796Z,12.73
2019-06-01T07:01:00.911Z,14.00
2019-06-01T07:03:30.017Z,13.70
2019-06-01T07:05:59.166Z,12.97
2019-06-01T07:08:28.257Z,12.83
2019-06-01T07:10:57.449Z,12.70
2019-06-01T07:13:27.622Z,13.47
2019-06-01T07:15:56.800Z,11.50
2019-06-01T07:18:29.201Z,11.53
2019-06-01T07:20:58.306Z,12.17
2019-06-01T07:23:27.978Z,12.13
2019-06-01T07:25:57.383Z,11.70
2019-06-01T07:28:26.792Z,11.57
2019-06-01T07:30:56.107Z,11.67
2019-06-01T07:33:26.367Z,11.43
2019-06-01T07:35:55.840Z,11.37
2019-06-01T07:38:24.951Z,10.87
2019-06-01T07:40:54.045Z,11.03
2019-06-01T07:43:23.156Z,11.70
2019-06-01T07:45:52.243Z,10.73
2019-06-01T07:48:21.311Z,10.00
2019-06-01T07:50:50.686Z,10.27
2019-06-01T07:53:20.985Z,9.73
2019-06-01T07:55:50.087Z,9.63
2019-06-01T07:58:20.660Z,9.07
2019-06-01T08:00:50.223Z,8.00
2019-06-01T08:03:19.539Z,7.37
2019-06-01T08:05:48.667Z,7.87
2019-06-01T08:08:18.015Z,7.87
2019-06-01T08:10:47.787Z,8.27
2019-06-01T08:13:16.890Z,8.73
2019-06-01T08:15:46.019Z,8.40
2019-06-01T08:18:15.107Z,8.63
2019-06-01T08:20:44.465Z,7.40
2019-06-01T08:23:13.600Z,7.80
2019-06-01T08:25:42.667Z,8.43
2019-06-01T08:28:11.755Z,7.77
2019-06-01T08:30:40.819Z,7.57
2019-06-01T08:33:09.906Z,6.33
2019-06-01T08:35:39.264Z,6.13
2019-06-01T08:38:08.630Z,7.87
2019-06-01T08:40:37.730Z,6.07
2019-06-01T08:43:07.058Z,6.83
2019-06-01T08:45:37.424Z,7.30
2019-06-01T08:48:06.977Z,7.07
2019-06-01T08:50:37.883Z,6.40
2019-06-01T08:53:06.979Z,6.63
2019-06-01T08:55:36.340Z,6.73
2019-06-01T08:58:05.434Z,6.23
2019-06-01T09:00:34.736Z,6.37
2019-06-01T09:03:03.896Z,7.07
2019-06-01T09:05:33.180Z,7.10
2019-06-01T09:08:02.259Z,6.93
2019-06-01T09:10:31.508Z,10.93
2019-06-01T09:13:00.692Z,7.27
2019-06-01T09:15:29.834Z,6.43
2019-06-01T09:17:59.234Z,6.37
2019-06-01T09:20:33.372Z,6.47
2019-06-01T09:22:59.365Z,6.13
2019-06-01T09:25:29.570Z,6.63
2019-06-01T09:27:59.039Z,6.60
2019-06-01T09:30:28.142Z,6.63
2019-06-01T09:32:57.488Z,5.33
2019-06-01T09:35:46.276Z,4.83
2019-06-01T09:37:57.403Z,5.50
2019-06-01T09:40:28.268Z,5.80
2019-06-01T09:42:57.831Z,5.73
2019-06-01T09:45:27.842Z,4.80
2019-06-01T09:47:57.478Z,4.97
2019-06-01T09:50:27.227Z,4.83
2019-06-01T09:52:58.001Z,5.07
2019-06-01T09:55:27.739Z,5.58
2019-06-01T09:57:58.337Z,5.43
2019-06-01T10:00:28.334Z,4.97
2019-06-01T10:02:57.520Z,5.40
2019-06-01T10:05:30.556Z,4.70
2019-06-01T10:07:59.627Z,5.53
2019-06-01T10:10:29.856Z,5.53
2019-06-01T10:12:59.107Z,5.40
2019-06-01T10:15:28.323Z,5.63
2019-06-01T10:17:57.638Z,5.70
2019-06-01T10:20:26.719Z,6.80
2019-06-01T10:22:56.324Z,6.00
2019-06-01T10:25:25.443Z,5.90
2019-06-01T10:27:54.527Z,5.30
2019-06-01T10:30:23.636Z,5.40
2019-06-01T10:32:52.703Z,5.77
2019-06-01T10:35:22.072Z,5.27
2019-06-01T10:37:51.309Z,5.30
2019-06-01T10:40:20.387Z,6.47
2019-06-01T10:42:49.478Z,5.93
2019-06-01T10:45:18.880Z,6.57
2019-06-01T10:47:48.296Z,6.43
2019-06-01T10:50:17.810Z,5.87
2019-06-01T10:52:46.891Z,5.50
2019-06-01T10:55:16.112Z,5.30
2019-06-01T10:57:45.228Z,5.20
2019-06-01T11:00:14.707Z,5.70
2019-06-01T11:02:43.791Z,5.50
2019-06-01T11:05:15.783Z,4.92
2019-06-01T11:07:45.125Z,4.60
2019-06-01T11:10:15.531Z,4.83
2019-06-01T11:12:44.597Z,5.08
2019-06-01T11:15:13.681Z,4.20
2019-06-01T11:17:43.276Z,4.30
2019-06-01T11:20:13.403Z,4.83
2019-06-01T11:22:43.593Z,4.60
2019-06-01T11:25:12.943Z,4.58
2019-06-01T11:27:42.083Z,4.70
2019-06-01T11:30:12.191Z,4.45
2019-06-01T11:32:42.838Z,4.28
2019-06-01T11:35:12.272Z,4.70
2019-06-01T11:37:42.374Z,4.62
2019-06-01T11:40:11.852Z,4.10
2019-06-01T11:42:41.049Z,6.07
2019-06-01T11:45:10.664Z,4.37
2019-06-01T11:47:40.953Z,4.45
2019-06-01T11:50:10.211Z,4.00
2019-06-01T11:52:39.332Z,4.90
2019-06-01T11:55:09.045Z,4.65
2019-06-01T11:57:39.360Z,8.55
2019-06-01T12:00:10.623Z,4.30
2019-06-01T12:02:39.788Z,4.35
2019-06-01T12:05:10.324Z,4.60
2019-06-01T12:07:39.918Z,3.90
2019-06-01T12:10:09.659Z,4.10
2019-06-01T12:12:40.166Z,7.17
2019-06-01T12:15:11.055Z,4.30
2019-06-01T12:17:40.691Z,4.17
2019-06-01T12:20:10.070Z,3.95
2019-06-01T12:22:39.407Z,4.00
2019-06-01T12:25:09.803Z,3.95
2019-06-01T12:27:39.696Z,4.30
2019-06-01T12:30:09.894Z,4.40
2019-06-01T12:32:39.844Z,3.87
2019-06-01T12:35:09.220Z,3.87
2019-06-01T12:37:56.125Z,3.27
2019-06-01T12:40:10.036Z,3.42
2019-06-01T12:42:39.878Z,3.70
2019-06-01T12:45:15.191Z,3.62
2019-06-01T12:47:44.275Z,3.62
2019-06-01T12:50:13.764Z,3.90
2019-06-01T12:52:42.912Z,3.65
2019-06-01T12:55:12.118Z,3.67
2019-06-01T12:57:42.837Z,3.27
2019-06-01T13:00:12.137Z,4.85
2019-06-01T13:02:44.859Z,3.40
2019-06-01T13:05:12.165Z,2.90
2019-06-01T13:07:53.111Z,3.40
2019-06-01T13:10:13.987Z,3.17
2019-06-01T13:12:43.586Z,3.80
2019-06-01T13:15:12.893Z,4.30
2019-06-01T13:17:43.021Z,2.90
2019-06-01T13:20:12.308Z,3.22
2019-06-01T13:22:41.648Z,2.72
2019-06-01T13:25:11.836Z,2.98
2019-06-01T13:27:42.552Z,2.90
2019-06-01T13:30:12.366Z,3.83
2019-06-01T13:32:42.428Z,3.15
2019-06-01T13:35:11.872Z,3.40
2019-06-01T13:37:40.964Z,3.00
2019-06-01T13:40:10.797Z,3.17
2019-06-01T13:42:39.896Z,3.62
2019-06-01T13:45:09.281Z,2.92
2019-06-01T13:47:38.661Z,4.03
2019-06-01T13:50:07.865Z,3.58
2019-06-01T13:52:37.507Z,3.40
2019-06-01T13:55:07.199Z,3.27
2019-06-01T13:57:39.480Z,3.22
2019-06-01T14:00:07.892Z,3.17
2019-06-01T14:02:36.963Z,3.00
2019-06-01T14:05:06.490Z,2.90
2019-06-01T14:07:35.568Z,3.15
2019-06-01T14:10:06.663Z,2.67
2019-06-01T14:12:35.761Z,2.90
2019-06-01T14:15:05.345Z,2.80
2019-06-01T14:17:34.498Z,2.67
2019-06-01T14:20:03.727Z,2.67
2019-06-01T14:22:34.710Z,2.90
2019-06-01T14:25:13.402Z,3.30
2019-06-01T14:27:38.688Z,3.10
2019-06-01T14:30:08.225Z,2.15
2019-06-01T14:32:37.587Z,2.70
2019-06-01T14:35:06.797Z,2.52
2019-06-01T14:37:36.234Z,2.50
2019-06-01T14:40:07.379Z,2.30
2019-06-01T14:42:36.537Z,2.40
2019-06-01T14:45:06.039Z,2.15
2019-06-01T14:47:35.440Z,2.22
2019-06-01T14:50:05.090Z,2.20
2019-06-01T14:52:35.339Z,2.77
2019-06-01T14:55:05.441Z,2.47
2019-06-01T14:57:34.523Z,2.30
2019-06-01T15:00:04.074Z,2.27
2019-06-01T15:02:33.153Z,2.35
2019-06-01T15:05:02.260Z,2.25
2019-06-01T15:07:31.997Z,2.08
2019-06-01T15:10:01.416Z,2.08
2019-06-01T15:12:30.506Z,2.10
2019-06-01T15:14:59.860Z,2.27
2019-06-01T15:17:29.254Z,1.90
2019-06-01T15:19:58.391Z,2.10
2019-06-01T15:22:27.516Z,2.60
2019-06-01T15:24:56.611Z,2.60
2019-06-01T15:27:25.718Z,2.10
2019-06-01T15:29:55.075Z,2.20
2019-06-01T15:32:26.632Z,2.30
2019-06-01T15:34:55.104Z,2.37
2019-06-01T15:37:24.262Z,2.20
2019-06-01T15:39:54.627Z,2.25
2019-06-01T15:42:23.760Z,2.00
2019-06-01T15:44:53.089Z,3.37
2019-06-01T15:47:22.149Z,2.20
2019-06-01T15:49:51.664Z,2.30
2019-06-01T15:52:21.009Z,1.80
2019-06-01T15:54:50.092Z,2.33
2019-06-01T15:57:19.268Z,2.62
2019-06-01T15:59:48.601Z,2.10
2019-06-01T16:02:17.977Z,2.60
2019-06-01T16:04:47.316Z,2.15
2019-06-01T16:07:16.432Z,2.20
2019-06-01T16:09:45.579Z,2.20
2019-06-01T16:12:14.915Z,2.12
2019-06-01T16:14:44.010Z,2.33
2019-06-01T16:17:13.381Z,2.20
2019-06-01T16:19:42.629Z,2.40
2019-06-01T16:22:11.775Z,2.42
2019-06-01T16:24:40.853Z,2.35
2019-06-01T16:27:09.942Z,2.00
2019-06-01T16:29:39.313Z,2.47
2019-06-01T16:32:08.930Z,2.10
2019-06-01T16:34:38.546Z,2.50
2019-06-01T16:37:07.614Z,2.30
2019-06-01T16:39:36.716Z,2.60
2019-06-01T16:42:10.586Z,2.55
2019-06-01T16:44:39.660Z,2.65
2019-06-01T16:47:08.729Z,2.30
2019-06-01T16:49:37.816Z,2.60
2019-06-01T16:52:07.217Z,2.77
2019-06-01T16:54:36.350Z,2.83
2019-06-01T16:57:05.458Z,3.00
2019-06-01T16:59:34.542Z,2.17
2019-06-01T17:02:03.636Z,2.50
2019-06-01T17:04:32.972Z,2.40
2019-06-01T17:07:05.554Z,2.67
2019-06-01T17:09:33.251Z,2.50
2019-06-01T17:12:03.152Z,2.65
2019-06-01T17:14:32.352Z,2.92
2019-06-01T17:19:01.038Z,3.05
2019-06-01T17:21:30.159Z,2.92
2019-06-01T17:23:59.504Z,3.00
2019-06-01T17:26:29.056Z,2.62
2019-06-01T17:28:58.145Z,2.47
2019-06-01T17:31:27.227Z,3.00
2019-06-01T17:33:56.295Z,2.67
2019-06-01T17:36:25.378Z,4.10
2019-06-01T17:38:54.454Z,2.80
2019-06-01T17:43:43.406Z,3.00
2019-06-01T17:46:12.794Z,3.02
2019-06-01T17:48:42.873Z,3.40
2019-06-01T17:51:12.797Z,3.00
2019-06-01T17:53:41.933Z,2.98
2019-06-01T17:56:12.160Z,2.62
2019-06-01T17:58:41.735Z,2.83
2019-06-01T18:01:12.079Z,5.60
2019-06-01T18:03:41.285Z,3.58
2019-06-01T18:06:10.376Z,3.10
2019-06-01T18:08:39.511Z,3.65
2019-06-01T18:11:10.045Z,6.62
2019-06-01T18:13:42.502Z,3.50
2019-06-01T18:16:13.019Z,3.83
2019-06-01T18:18:43.125Z,3.20
2019-06-01T18:21:12.971Z,3.45
2019-06-01T18:23:42.096Z,3.37
2019-06-01T18:26:11.477Z,3.58
2019-06-01T18:28:44.442Z,3.02
2019-06-01T18:31:13.500Z,3.47
2019-06-01T18:33:42.673Z,3.52
2019-06-01T18:36:11.996Z,3.67
2019-06-01T18:38:41.106Z,3.45
2019-06-01T18:41:16.792Z,3.35
2019-06-01T18:43:41.262Z,3.65
2019-06-01T18:46:10.426Z,3.80
2019-06-01T18:48:39.671Z,4.10
2019-06-01T18:51:10.122Z,4.03
2019-06-01T18:53:39.752Z,4.10
2019-06-01T18:56:10.087Z,3.90
2019-06-01T18:58:39.488Z,4.12
2019-06-01T19:01:10.576Z,4.28
2019-06-01T19:03:39.829Z,3.77
2019-06-01T19:06:09.541Z,4.25
2019-06-01T19:08:38.725Z,4.33
2019-06-01T19:11:08.389Z,3.95
2019-06-01T19:13:37.596Z,4.62
2019-06-01T19:16:06.667Z,4.60
2019-06-01T19:18:35.744Z,4.70
2019-06-01T19:21:06.325Z,4.58
2019-06-01T19:23:35.616Z,4.10
2019-06-01T19:26:04.703Z,4.05
2019-06-01T19:28:33.840Z,4.78
2019-06-01T19:31:02.927Z,4.30
2019-06-01T19:33:31.984Z,4.58
2019-06-01T19:36:01.572Z,4.92
2019-06-01T19:38:32.751Z,4.20
2019-06-01T19:41:01.859Z,4.87
2019-06-01T19:43:32.082Z,4.25
2019-06-01T19:46:01.178Z,5.20
2019-06-01T19:48:30.539Z,5.08
2019-06-01T19:50:59.678Z,4.60
2019-06-01T19:53:28.884Z,4.87
2019-06-01T19:55:57.981Z,5.00
2019-06-01T19:58:27.343Z,5.17
2019-06-01T20:00:56.595Z,5.27
2019-06-01T20:03:26.207Z,4.60
2019-06-01T20:05:55.329Z,4.93
2019-06-01T20:08:24.399Z,5.87
2019-06-01T20:10:53.547Z,5.27
2019-06-01T20:13:22.659Z,6.20
2019-06-01T20:15:51.847Z,5.90
2019-06-01T20:18:21.203Z,5.83
2019-06-01T20:20:50.371Z,5.57
2019-06-01T20:23:21.589Z,6.73
2019-06-01T20:25:50.827Z,6.60
2019-06-01T20:28:19.957Z,5.90
2019-06-01T20:30:49.143Z,6.60
2019-06-01T20:33:18.367Z,6.73
2019-06-01T20:35:47.543Z,7.20
2019-06-01T20:38:18.352Z,6.87
2019-06-01T20:40:48.084Z,6.70
2019-06-01T20:43:17.200Z,6.63
2019-06-01T20:45:46.314Z,7.07
2019-06-01T20:48:17.038Z,6.83
2019-06-01T20:50:46.495Z,6.77
2019-06-01T20:53:16.801Z,7.17
2019-06-01T20:55:46.091Z,7.63
2019-06-01T20:58:16.156Z,8.30
2019-06-01T21:00:46.009Z,8.80
2019-06-01T21:03:15.645Z,8.00
2019-06-01T21:05:45.036Z,8.60
2019-06-01T21:08:15.939Z,8.03
2019-06-01T21:10:45.396Z,7.40
2019-06-01T21:13:14.526Z,7.27
2019-06-01T21:15:43.653Z,8.27
2019-06-01T21:18:14.302Z,7.70
2019-06-01T21:20:43.466Z,7.73
2019-06-01T21:23:12.538Z,9.10
2019-06-01T21:25:41.620Z,8.23
2019-06-01T21:28:14.150Z,9.47
2019-06-01T21:30:41.906Z,9.47
2019-06-01T21:33:11.007Z,8.50
2019-06-01T21:35:40.076Z,8.73
2019-06-01T21:38:09.191Z,9.77
2019-06-01T21:40:40.771Z,9.40
2019-06-01T21:43:23.555Z,9.77
2019-06-01T21:45:41.247Z,10.13
2019-06-01T21:48:10.326Z,10.87
2019-06-01T21:50:39.523Z,9.90
2019-06-01T21:53:08.891Z,9.73
2019-06-01T21:55:37.964Z,10.23
2019-06-01T21:58:07.015Z,10.43
2019-06-01T22:00:37.861Z,9.53
2019-06-01T22:03:07.898Z,9.00
2019-06-01T22:05:37.067Z,9.30
2019-06-01T22:08:06.171Z,9.30
2019-06-01T22:10:35.346Z,9.67
2019-06-01T22:13:18.195Z,9.47
2019-06-01T22:15:35.475Z,10.63
2019-06-01T22:18:04.912Z,10.50
2019-06-01T22:20:33.989Z,10.87
2019-06-01T22:23:03.069Z,10.87
2019-06-01T22:25:32.508Z,10.93
2019-06-01T22:28:01.857Z,10.80
2019-06-01T22:30:30.921Z,9.57
2019-06-01T22:33:03.763Z,9.53
2019-06-01T22:35:33.007Z,9.97
2019-06-01T22:38:02.167Z,9.70
2019-06-01T22:40:31.511Z,8.87
2019-06-01T22:43:00.937Z,9.03
2019-06-01T22:45:30.287Z,9.33
2019-06-01T22:47:59.355Z,9.00
2019-06-01T22:50:29.090Z,8.53
2019-06-01T22:52:58.178Z,8.57
2019-06-01T22:55:28.450Z,9.40
2019-06-01T22:57:57.862Z,9.07
2019-06-01T23:00:27.860Z,9.53
2019-06-01T23:02:57.083Z,8.57
2019-06-01T23:05:27.055Z,9.17
2019-06-01T23:07:56.292Z,9.00
2019-06-01T23:10:30.072Z,9.43
2019-06-01T23:12:56.799Z,9.77
2019-06-01T23:15:25.922Z,8.83
2019-06-01T23:17:55.245Z,9.03
2019-06-01T23:20:24.333Z,9.17
2019-06-01T23:22:53.963Z,9.43
2019-06-01T23:25:24.398Z,9.47
2019-06-01T23:27:54.180Z,9.87
2019-06-01T23:30:24.267Z,10.13
2019-06-01T23:32:53.679Z,10.43
2019-06-01T23:35:22.851Z,10.97
2019-06-01T23:37:52.454Z,10.33
2019-06-01T23:40:22.454Z,11.60
2019-06-01T23:42:51.718Z,10.20
2019-06-01T23:45:21.042Z,9.67
2019-06-01T23:47:50.218Z,11.07
2019-06-01T23:50:19.332Z,11.10
2019-06-01T23:52:48.483Z,10.67
2019-06-01T23:55:17.583Z,9.83
2019-06-01T23:57:46.667Z,10.33
